sensor_id;sensor_type;location;lat;lon;timestamp;pressure;altitude;pressure_sealevel;temperature;humidity
62057;BME280;48016;50.284;18.860;2023-06-10T00:01:36;97882.40;;;16.02;93.28
62057;BME280;48016;50.284;18.860;2023-06-10T00:04:02;97885.20;;;16.04;93.29
62057;BME280;48016;50.284;18.860;2023-06-10T00:06:28;97884.09;;;16.06;93.11
62057;BME280;48016;50.284;18.860;2023-06-10T00:09:05;97887.00;;;16.08;92.77
62057;BME280;48016;50.284;18.860;2023-06-10T00:11:32;97890.20;;;16.08;92.86
62057;BME280;48016;50.284;18.860;2023-06-10T00:13:58;97888.14;;;16.09;92.75
62057;BME280;48016;50.284;18.860;2023-06-10T00:16:25;97893.33;;;16.08;92.55
62057;BME280;48016;50.284;18.860;2023-06-10T00:18:51;97891.45;;;16.08;92.59
62057;BME280;48016;50.284;18.860;2023-06-10T00:21:17;97890.52;;;16.10;92.49
62057;BME280;48016;50.284;18.860;2023-06-10T00:23:44;97890.52;;;16.09;92.31
62057;BME280;48016;50.284;18.860;2023-06-10T00:26:10;97890.95;;;16.09;92.30
62057;BME280;48016;50.284;18.860;2023-06-10T00:28:36;97894.02;;;16.09;92.25
62057;BME280;48016;50.284;18.860;2023-06-10T00:31:02;97894.15;;;16.08;92.09
62057;BME280;48016;50.284;18.860;2023-06-10T00:33:29;97892.76;;;16.07;92.25
62057;BME280;48016;50.284;18.860;2023-06-10T00:35:56;97890.20;;;16.06;92.13
62057;BME280;48016;50.284;18.860;2023-06-10T00:38:22;97894.70;;;16.04;92.22
62057;BME280;48016;50.284;18.860;2023-06-10T00:40:48;97894.71;;;16.04;92.24
62057;BME280;48016;50.284;18.860;2023-06-10T00:43:13;97895.61;;;16.06;92.18
62057;BME280;48016;50.284;18.860;2023-06-10T00:45:39;97896.46;;;16.06;91.97
62057;BME280;48016;50.284;18.860;2023-06-10T00:48:05;97894.25;;;16.05;91.92
62057;BME280;48016;50.284;18.860;2023-06-10T00:50:31;97895.54;;;16.06;91.88
62057;BME280;48016;50.284;18.860;2023-06-10T00:52:58;97895.88;;;16.05;91.78
62057;BME280;48016;50.284;18.860;2023-06-10T00:55:25;97893.79;;;16.03;91.77
62057;BME280;48016;50.284;18.860;2023-06-10T00:57:53;97895.19;;;16.01;91.69
62057;BME280;48016;50.284;18.860;2023-06-10T01:00:19;97898.48;;;15.98;91.55
62057;BME280;48016;50.284;18.860;2023-06-10T01:02:46;97902.41;;;15.93;91.42
62057;BME280;48016;50.284;18.860;2023-06-10T01:05:12;97901.95;;;15.86;91.69
62057;BME280;48016;50.284;18.860;2023-06-10T01:10:35;97908.02;;;15.81;91.69
62057;BME280;48016;50.284;18.860;2023-06-10T01:13:06;97906.17;;;15.77;92.05
62057;BME280;48016;50.284;18.860;2023-06-10T01:15:34;97905.40;;;15.79;91.88
62057;BME280;48016;50.284;18.860;2023-06-10T01:18:03;97903.52;;;15.76;92.01
62057;BME280;48016;50.284;18.860;2023-06-10T01:20:30;97903.61;;;15.78;92.18
62057;BME280;48016;50.284;18.860;2023-06-10T01:22:58;97904.39;;;15.80;92.15
62057;BME280;48016;50.284;18.860;2023-06-10T01:25:26;97904.70;;;15.80;91.86
62057;BME280;48016;50.284;18.860;2023-06-10T01:30:30;97901.13;;;15.79;91.81
62057;BME280;48016;50.284;18.860;2023-06-10T01:32:59;97902.35;;;15.77;91.90
62057;BME280;48016;50.284;18.860;2023-06-10T01:35:27;97897.33;;;15.79;92.03
62057;BME280;48016;50.284;18.860;2023-06-10T01:37:57;97895.48;;;15.81;91.94
62057;BME280;48016;50.284;18.860;2023-06-10T01:40:25;97898.65;;;15.84;91.84
62057;BME280;48016;50.284;18.860;2023-06-10T01:42:52;97902.19;;;15.84;91.78
62057;BME280;48016;50.284;18.860;2023-06-10T01:45:18;97900.22;;;15.85;91.84
62057;BME280;48016;50.284;18.860;2023-06-10T01:47:43;97901.25;;;15.88;91.90
62057;BME280;48016;50.284;18.860;2023-06-10T01:50:09;97903.39;;;15.90;91.75
62057;BME280;48016;50.284;18.860;2023-06-10T01:52:36;97907.96;;;15.91;91.61
62057;BME280;48016;50.284;18.860;2023-06-10T01:55:03;97909.04;;;15.92;91.73
62057;BME280;48016;50.284;18.860;2023-06-10T01:57:29;97917.17;;;15.94;91.59
62057;BME280;48016;50.284;18.860;2023-06-10T01:59:55;97914.15;;;15.93;91.61
62057;BME280;48016;50.284;18.860;2023-06-10T02:02:21;97920.52;;;15.93;91.65
62057;BME280;48016;50.284;18.860;2023-06-10T02:04:48;97920.02;;;15.94;91.63
62057;BME280;48016;50.284;18.860;2023-06-10T02:07:13;97924.59;;;15.94;91.65
62057;BME280;48016;50.284;18.860;2023-06-10T02:09:39;97924.95;;;15.96;91.85
62057;BME280;48016;50.284;18.860;2023-06-10T02:12:06;97925.15;;;15.97;91.59
62057;BME280;48016;50.284;18.860;2023-06-10T02:14:33;97928.13;;;15.95;91.53
62057;BME280;48016;50.284;18.860;2023-06-10T02:16:59;97927.95;;;15.96;91.72
62057;BME280;48016;50.284;18.860;2023-06-10T02:19:26;97924.06;;;15.93;91.52
62057;BME280;48016;50.284;18.860;2023-06-10T02:21:53;97926.59;;;15.90;91.65
62057;BME280;48016;50.284;18.860;2023-06-10T02:24:19;97930.46;;;15.86;91.71
62057;BME280;48016;50.284;18.860;2023-06-10T02:26:44;97930.05;;;15.84;91.93
62057;BME280;48016;50.284;18.860;2023-06-10T02:29:11;97925.59;;;15.84;92.11
62057;BME280;48016;50.284;18.860;2023-06-10T02:31:37;97929.17;;;15.85;91.91
62057;BME280;48016;50.284;18.860;2023-06-10T02:34:05;97928.86;;;15.83;91.93
62057;BME280;48016;50.284;18.860;2023-06-10T02:36:31;97927.73;;;15.80;92.09
62057;BME280;48016;50.284;18.860;2023-06-10T02:38:57;97928.94;;;15.79;92.20
62057;BME280;48016;50.284;18.860;2023-06-10T02:41:23;97925.60;;;15.76;92.11
62057;BME280;48016;50.284;18.860;2023-06-10T02:43:50;97924.52;;;15.72;92.33
62057;BME280;48016;50.284;18.860;2023-06-10T02:46:16;97920.27;;;15.72;92.44
62057;BME280;48016;50.284;18.860;2023-06-10T02:48:43;97923.81;;;15.68;92.52
62057;BME280;48016;50.284;18.860;2023-06-10T02:51:12;97925.83;;;15.61;92.65
62057;BME280;48016;50.284;18.860;2023-06-10T02:53:38;97931.79;;;15.56;92.78
62057;BME280;48016;50.284;18.860;2023-06-10T02:56:03;97933.40;;;15.53;92.82
62057;BME280;48016;50.284;18.860;2023-06-10T02:58:29;97933.78;;;15.49;93.05
62057;BME280;48016;50.284;18.860;2023-06-10T03:00:56;97934.52;;;15.49;93.25
62057;BME280;48016;50.284;18.860;2023-06-10T03:03:22;97936.39;;;15.47;93.76
62057;BME280;48016;50.284;18.860;2023-06-10T03:05:48;97934.54;;;15.46;93.66
62057;BME280;48016;50.284;18.860;2023-06-10T03:08:14;97936.52;;;15.48;93.77
62057;BME280;48016;50.284;18.860;2023-06-10T03:10:40;97933.30;;;15.49;93.74
62057;BME280;48016;50.284;18.860;2023-06-10T03:13:06;97935.77;;;15.48;93.81
62057;BME280;48016;50.284;18.860;2023-06-10T03:15:32;97934.59;;;15.46;94.05
62057;BME280;48016;50.284;18.860;2023-06-10T03:18:01;97936.90;;;15.45;94.10
62057;BME280;48016;50.284;18.860;2023-06-10T03:20:28;97941.98;;;15.45;94.19
62057;BME280;48016;50.284;18.860;2023-06-10T03:22:54;97940.77;;;15.44;94.35
62057;BME280;48016;50.284;18.860;2023-06-10T03:25:20;97946.96;;;15.46;94.28
62057;BME280;48016;50.284;18.860;2023-06-10T03:27:46;97954.23;;;15.48;94.27
62057;BME280;48016;50.284;18.860;2023-06-10T03:30:13;97953.22;;;15.50;94.37
62057;BME280;48016;50.284;18.860;2023-06-10T03:32:39;97953.96;;;15.55;94.40
62057;BME280;48016;50.284;18.860;2023-06-10T03:35:07;97953.57;;;15.60;94.53
62057;BME280;48016;50.284;18.860;2023-06-10T03:37:33;97954.56;;;15.62;94.52
62057;BME280;48016;50.284;18.860;2023-06-10T03:39:59;97950.23;;;15.65;94.56
62057;BME280;48016;50.284;18.860;2023-06-10T03:42:25;97953.94;;;15.70;94.40
62057;BME280;48016;50.284;18.860;2023-06-10T03:44:50;97957.21;;;15.73;94.35
62057;BME280;48016;50.284;18.860;2023-06-10T03:47:16;97959.33;;;15.77;94.22
62057;BME280;48016;50.284;18.860;2023-06-10T03:49:42;97962.18;;;15.83;94.21
62057;BME280;48016;50.284;18.860;2023-06-10T03:52:08;97964.79;;;15.90;94.07
62057;BME280;48016;50.284;18.860;2023-06-10T03:54:34;97964.15;;;15.96;93.82
62057;BME280;48016;50.284;18.860;2023-06-10T03:57:00;97965.20;;;15.99;93.77
62057;BME280;48016;50.284;18.860;2023-06-10T03:59:26;97966.19;;;16.04;93.63
62057;BME280;48016;50.284;18.860;2023-06-10T04:01:52;97961.64;;;16.12;93.53
62057;BME280;48016;50.284;18.860;2023-06-10T04:04:18;97963.58;;;16.21;93.32
62057;BME280;48016;50.284;18.860;2023-06-10T04:06:44;97959.92;;;16.29;92.98
62057;BME280;48016;50.284;18.860;2023-06-10T04:09:11;97964.48;;;16.37;92.83
62057;BME280;48016;50.284;18.860;2023-06-10T04:11:37;97962.27;;;16.44;92.70
62057;BME280;48016;50.284;18.860;2023-06-10T04:14:02;97966.30;;;16.50;92.19
62057;BME280;48016;50.284;18.860;2023-06-10T04:16:29;97966.04;;;16.53;91.86
62057;BME280;48016;50.284;18.860;2023-06-10T04:18:55;97963.63;;;16.56;91.80
62057;BME280;48016;50.284;18.860;2023-06-10T04:21:21;97967.23;;;16.56;91.34
62057;BME280;48016;50.284;18.860;2023-06-10T04:23:47;97971.40;;;16.58;91.26
62057;BME280;48016;50.284;18.860;2023-06-10T04:26:14;97971.65;;;16.56;90.54
62057;BME280;48016;50.284;18.860;2023-06-10T04:28:40;97974.95;;;16.55;90.47
62057;BME280;48016;50.284;18.860;2023-06-10T04:31:05;97979.30;;;16.56;90.30
62057;BME280;48016;50.284;18.860;2023-06-10T04:33:31;97979.92;;;16.57;90.14
62057;BME280;48016;50.284;18.860;2023-06-10T04:35:58;97976.31;;;16.66;90.21
62057;BME280;48016;50.284;18.860;2023-06-10T04:38:24;97976.91;;;16.79;89.62
62057;BME280;48016;50.284;18.860;2023-06-10T04:40:50;97970.27;;;16.87;89.10
62057;BME280;48016;50.284;18.860;2023-06-10T04:43:16;97969.39;;;16.95;88.63
62057;BME280;48016;50.284;18.860;2023-06-10T04:45:42;97969.94;;;17.00;88.25
62057;BME280;48016;50.284;18.860;2023-06-10T04:48:10;97966.92;;;17.06;88.01
62057;BME280;48016;50.284;18.860;2023-06-10T04:50:37;97969.41;;;17.12;87.70
62057;BME280;48016;50.284;18.860;2023-06-10T04:53:03;97970.10;;;17.16;87.51
62057;BME280;48016;50.284;18.860;2023-06-10T04:55:29;97969.65;;;17.13;87.12
62057;BME280;48016;50.284;18.860;2023-06-10T04:57:55;97968.02;;;17.11;87.03
62057;BME280;48016;50.284;18.860;2023-06-10T05:00:21;97969.65;;;17.13;86.85
62057;BME280;48016;50.284;18.860;2023-06-10T05:02:47;97973.17;;;17.18;86.76
62057;BME280;48016;50.284;18.860;2023-06-10T05:05:16;97976.92;;;17.28;86.45
62057;BME280;48016;50.284;18.860;2023-06-10T05:07:42;97973.70;;;17.39;85.94
62057;BME280;48016;50.284;18.860;2023-06-10T05:10:09;97980.23;;;17.47;85.69
62057;BME280;48016;50.284;18.860;2023-06-10T05:12:35;97980.39;;;17.55;84.79
62057;BME280;48016;50.284;18.860;2023-06-10T05:15:01;97983.15;;;17.56;84.38
62057;BME280;48016;50.284;18.860;2023-06-10T05:17:27;97979.30;;;17.59;84.47
62057;BME280;48016;50.284;18.860;2023-06-10T05:19:54;97973.84;;;17.66;84.52
62057;BME280;48016;50.284;18.860;2023-06-10T05:22:19;97978.70;;;17.84;83.69
62057;BME280;48016;50.284;18.860;2023-06-10T05:24:45;97982.70;;;18.17;82.46
62057;BME280;48016;50.284;18.860;2023-06-10T05:27:11;97983.22;;;18.59;81.45
62057;BME280;48016;50.284;18.860;2023-06-10T05:29:37;97981.58;;;19.01;81.56
62057;BME280;48016;50.284;18.860;2023-06-10T05:32:03;97982.69;;;19.36;79.52
62057;BME280;48016;50.284;18.860;2023-06-10T05:34:30;97986.58;;;19.51;77.83
62057;BME280;48016;50.284;18.860;2023-06-10T05:36:56;97982.75;;;19.55;77.42
62057;BME280;48016;50.284;18.860;2023-06-10T05:39:23;97993.08;;;19.76;76.21
62057;BME280;48016;50.284;18.860;2023-06-10T05:41:49;97991.10;;;19.67;75.36
62057;BME280;48016;50.284;18.860;2023-06-10T05:44:15;97995.23;;;19.42;75.37
62057;BME280;48016;50.284;18.860;2023-06-10T05:46:41;97994.84;;;19.17;76.09
62057;BME280;48016;50.284;18.860;2023-06-10T05:49:07;97999.29;;;18.97;76.76
62057;BME280;48016;50.284;18.860;2023-06-10T05:51:33;98002.39;;;18.84;77.04
62057;BME280;48016;50.284;18.860;2023-06-10T05:53:58;98003.67;;;18.66;77.24
62057;BME280;48016;50.284;18.860;2023-06-10T05:56:24;97998.64;;;18.51;77.92
62057;BME280;48016;50.284;18.860;2023-06-10T05:58:51;98003.28;;;18.45;78.63
62057;BME280;48016;50.284;18.860;2023-06-10T06:01:17;98001.64;;;18.39;78.74
62057;BME280;48016;50.284;18.860;2023-06-10T06:03:43;98003.98;;;18.38;79.15
62057;BME280;48016;50.284;18.860;2023-06-10T06:06:08;98006.45;;;18.32;78.61
62057;BME280;48016;50.284;18.860;2023-06-10T06:08:34;98009.86;;;18.27;78.93
62057;BME280;48016;50.284;18.860;2023-06-10T06:11:00;98010.13;;;18.32;79.12
62057;BME280;48016;50.284;18.860;2023-06-10T06:13:26;98007.89;;;18.51;79.09
62057;BME280;48016;50.284;18.860;2023-06-10T06:15:52;98018.62;;;18.75;78.88
62057;BME280;48016;50.284;18.860;2023-06-10T06:18:18;98010.50;;;18.94;77.17
62057;BME280;48016;50.284;18.860;2023-06-10T06:20:44;98014.83;;;18.98;77.61
62057;BME280;48016;50.284;18.860;2023-06-10T06:23:10;98013.95;;;19.02;77.00
62057;BME280;48016;50.284;18.860;2023-06-10T06:25:36;98022.80;;;18.91;76.17
62057;BME280;48016;50.284;18.860;2023-06-10T06:28:07;98020.01;;;18.81;76.82
62057;BME280;48016;50.284;18.860;2023-06-10T06:30:36;98023.70;;;18.78;77.23
62057;BME280;48016;50.284;18.860;2023-06-10T06:33:02;98026.73;;;18.70;77.50
62057;BME280;48016;50.284;18.860;2023-06-10T06:35:31;98028.98;;;18.74;77.66
62057;BME280;48016;50.284;18.860;2023-06-10T06:37:57;98030.39;;;18.68;77.45
62057;BME280;48016;50.284;18.860;2023-06-10T06:40:24;98033.99;;;18.60;77.75
62057;BME280;48016;50.284;18.860;2023-06-10T06:42:50;98043.52;;;18.48;77.64
62057;BME280;48016;50.284;18.860;2023-06-10T06:45:16;98038.55;;;18.36;77.97
62057;BME280;48016;50.284;18.860;2023-06-10T06:47:42;98039.91;;;18.38;78.26
62057;BME280;48016;50.284;18.860;2023-06-10T06:50:09;98043.84;;;18.49;78.48
62057;BME280;48016;50.284;18.860;2023-06-10T06:52:35;98047.92;;;18.61;78.13
62057;BME280;48016;50.284;18.860;2023-06-10T06:55:01;98051.02;;;18.65;78.07
62057;BME280;48016;50.284;18.860;2023-06-10T06:57:27;98055.27;;;18.65;77.24
62057;BME280;48016;50.284;18.860;2023-06-10T06:59:53;98051.73;;;18.69;77.43
62057;BME280;48016;50.284;18.860;2023-06-10T07:02:19;98054.78;;;18.83;77.75
62057;BME280;48016;50.284;18.860;2023-06-10T07:04:45;98059.93;;;18.95;76.81
62057;BME280;48016;50.284;18.860;2023-06-10T07:07:12;98059.45;;;19.03;76.64
62057;BME280;48016;50.284;18.860;2023-06-10T07:09:38;98064.95;;;19.16;76.10
62057;BME280;48016;50.284;18.860;2023-06-10T07:12:04;98065.37;;;19.26;76.00
62057;BME280;48016;50.284;18.860;2023-06-10T07:14:31;98068.52;;;19.22;75.46
62057;BME280;48016;50.284;18.860;2023-06-10T07:16:57;98067.98;;;19.09;75.96
62057;BME280;48016;50.284;18.860;2023-06-10T07:19:23;98070.73;;;19.01;76.07
62057;BME280;48016;50.284;18.860;2023-06-10T07:21:48;98071.92;;;18.89;76.56
62057;BME280;48016;50.284;18.860;2023-06-10T07:24:14;98067.11;;;18.85;77.08
62057;BME280;48016;50.284;18.860;2023-06-10T07:26:40;98072.14;;;18.85;77.03
62057;BME280;48016;50.284;18.860;2023-06-10T07:29:06;98074.50;;;18.83;77.36
62057;BME280;48016;50.284;18.860;2023-06-10T07:31:32;98077.33;;;18.75;77.27
62057;BME280;48016;50.284;18.860;2023-06-10T07:33:58;98080.27;;;18.71;77.52
62057;BME280;48016;50.284;18.860;2023-06-10T07:36:24;98079.52;;;18.70;77.37
62057;BME280;48016;50.284;18.860;2023-06-10T07:38:53;98077.38;;;18.72;77.12
62057;BME280;48016;50.284;18.860;2023-06-10T07:41:19;98080.77;;;18.77;76.91
62057;BME280;48016;50.284;18.860;2023-06-10T07:43:46;98082.59;;;18.79;76.76
62057;BME280;48016;50.284;18.860;2023-06-10T07:46:12;98086.20;;;18.79;76.59
62057;BME280;48016;50.284;18.860;2023-06-10T07:48:37;98086.91;;;18.73;76.70
62057;BME280;48016;50.284;18.860;2023-06-10T07:51:03;98085.85;;;18.71;77.04
62057;BME280;48016;50.284;18.860;2023-06-10T07:53:29;98081.66;;;18.70;77.26
62057;BME280;48016;50.284;18.860;2023-06-10T07:55:55;98089.47;;;18.73;77.27
62057;BME280;48016;50.284;18.860;2023-06-10T07:58:21;98086.45;;;18.69;77.33
62057;BME280;48016;50.284;18.860;2023-06-10T08:00:47;98083.23;;;18.64;77.49
62057;BME280;48016;50.284;18.860;2023-06-10T08:03:13;98084.59;;;18.66;77.56
62057;BME280;48016;50.284;18.860;2023-06-10T08:05:39;98084.18;;;18.72;77.38
62057;BME280;48016;50.284;18.860;2023-06-10T08:08:06;98081.00;;;18.75;77.48
62057;BME280;48016;50.284;18.860;2023-06-10T08:10:32;98088.02;;;18.79;77.06
62057;BME280;48016;50.284;18.860;2023-06-10T08:12:58;98088.20;;;18.78;77.14
62057;BME280;48016;50.284;18.860;2023-06-10T08:15:24;98091.61;;;18.82;77.33
62057;BME280;48016;50.284;18.860;2023-06-10T08:17:50;98089.79;;;18.91;77.17
62057;BME280;48016;50.284;18.860;2023-06-10T08:20:17;98088.84;;;19.02;77.11
62057;BME280;48016;50.284;18.860;2023-06-10T08:22:43;98098.32;;;19.08;75.54
62057;BME280;48016;50.284;18.860;2023-06-10T08:25:09;98096.22;;;19.07;75.44
62057;BME280;48016;50.284;18.860;2023-06-10T08:27:35;98097.66;;;19.18;75.75
62057;BME280;48016;50.284;18.860;2023-06-10T08:30:02;98104.11;;;19.31;75.71
62057;BME280;48016;50.284;18.860;2023-06-10T08:32:29;98103.11;;;19.37;75.59
62057;BME280;48016;50.284;18.860;2023-06-10T08:34:55;98107.20;;;19.44;74.91
62057;BME280;48016;50.284;18.860;2023-06-10T08:37:21;98105.56;;;19.48;74.58
62057;BME280;48016;50.284;18.860;2023-06-10T08:39:47;98108.95;;;19.52;74.12
62057;BME280;48016;50.284;18.860;2023-06-10T08:44:53;98109.60;;;19.66;74.14
62057;BME280;48016;50.284;18.860;2023-06-10T08:47:22;98112.96;;;19.84;74.39
62057;BME280;48016;50.284;18.860;2023-06-10T08:49:49;98105.18;;;20.02;73.67
62057;BME280;48016;50.284;18.860;2023-06-10T08:52:19;98111.19;;;20.10;73.25
62057;BME280;48016;50.284;18.860;2023-06-10T08:54:52;98115.42;;;20.06;72.27
62057;BME280;48016;50.284;18.860;2023-06-10T08:57:20;98107.95;;;20.06;72.67
62057;BME280;48016;50.284;18.860;2023-06-10T08:59:48;98112.26;;;20.23;73.02
62057;BME280;48016;50.284;18.860;2023-06-10T09:02:15;98115.20;;;20.36;72.01
62057;BME280;48016;50.284;18.860;2023-06-10T09:04:42;98114.88;;;20.38;71.65
62057;BME280;48016;50.284;18.860;2023-06-10T09:07:10;98113.34;;;20.47;72.05
62057;BME280;48016;50.284;18.860;2023-06-10T09:09:36;98114.99;;;20.72;71.60
62057;BME280;48016;50.284;18.860;2023-06-10T09:12:03;98116.86;;;20.77;69.84
62057;BME280;48016;50.284;18.860;2023-06-10T09:14:29;98121.51;;;20.94;70.28
62057;BME280;48016;50.284;18.860;2023-06-10T09:16:55;98122.13;;;21.08;69.41
62057;BME280;48016;50.284;18.860;2023-06-10T09:19:24;98121.13;;;21.24;69.44
62057;BME280;48016;50.284;18.860;2023-06-10T09:21:50;98122.71;;;21.47;68.20
62057;BME280;48016;50.284;18.860;2023-06-10T09:24:16;98126.06;;;21.54;67.88
62057;BME280;48016;50.284;18.860;2023-06-10T09:26:43;98122.71;;;21.54;67.54
62057;BME280;48016;50.284;18.860;2023-06-10T09:29:09;98124.20;;;21.60;67.48
62057;BME280;48016;50.284;18.860;2023-06-10T09:31:40;98129.27;;;21.54;66.61
62057;BME280;48016;50.284;18.860;2023-06-10T09:34:11;98126.77;;;21.50;67.10
62057;BME280;48016;50.284;18.860;2023-06-10T09:36:39;98125.56;;;21.59;67.15
62057;BME280;48016;50.284;18.860;2023-06-10T09:39:05;98124.95;;;21.59;66.69
62057;BME280;48016;50.284;18.860;2023-06-10T09:41:41;98127.05;;;21.51;66.90
62057;BME280;48016;50.284;18.860;2023-06-10T09:44:18;98128.06;;;21.43;67.02
62057;BME280;48016;50.284;18.860;2023-06-10T09:46:46;98126.30;;;21.35;67.34
62057;BME280;48016;50.284;18.860;2023-06-10T09:49:13;98122.09;;;21.34;67.69
62057;BME280;48016;50.284;18.860;2023-06-10T09:51:54;98121.63;;;21.43;67.96
62057;BME280;48016;50.284;18.860;2023-06-10T09:54:21;98122.02;;;21.43;67.36
62057;BME280;48016;50.284;18.860;2023-06-10T09:56:51;98123.02;;;21.41;67.18
62057;BME280;48016;50.284;18.860;2023-06-10T09:59:30;98118.35;;;21.51;67.10
62057;BME280;48016;50.284;18.860;2023-06-10T10:01:57;98120.46;;;21.49;66.91
62057;BME280;48016;50.284;18.860;2023-06-10T10:04:24;98115.23;;;21.62;65.84
62057;BME280;48016;50.284;18.860;2023-06-10T10:06:51;98108.61;;;21.75;65.92
62057;BME280;48016;50.284;18.860;2023-06-10T10:09:17;98107.48;;;21.91;65.25
62057;BME280;48016;50.284;18.860;2023-06-10T10:11:44;98102.36;;;22.09;64.76
62057;BME280;48016;50.284;18.860;2023-06-10T10:14:10;98102.48;;;22.29;63.28
62057;BME280;48016;50.284;18.860;2023-06-10T10:16:39;98105.02;;;22.40;63.59
62057;BME280;48016;50.284;18.860;2023-06-10T10:19:23;98114.69;;;22.57;62.80
62057;BME280;48016;50.284;18.860;2023-06-10T10:21:59;98109.13;;;22.49;61.21
62057;BME280;48016;50.284;18.860;2023-06-10T10:24:42;98104.30;;;22.30;60.85
62057;BME280;48016;50.284;18.860;2023-06-10T10:27:18;98104.25;;;22.34;60.44
62057;BME280;48016;50.284;18.860;2023-06-10T10:29:47;98100.27;;;22.43;59.91
62057;BME280;48016;50.284;18.860;2023-06-10T10:32:14;98098.35;;;22.53;59.77
62057;BME280;48016;50.284;18.860;2023-06-10T10:37:13;98111.66;;;22.47;57.36
62057;BME280;48016;50.284;18.860;2023-06-10T10:39:39;98104.80;;;22.19;57.43
62057;BME280;48016;50.284;18.860;2023-06-10T10:42:06;98105.04;;;22.07;58.37
62057;BME280;48016;50.284;18.860;2023-06-10T10:44:37;98097.04;;;22.12;58.82
62057;BME280;48016;50.284;18.860;2023-06-10T10:47:04;98095.54;;;22.24;59.01
62057;BME280;48016;50.284;18.860;2023-06-10T10:49:33;98102.05;;;22.25;58.77
62057;BME280;48016;50.284;18.860;2023-06-10T10:52:01;98090.36;;;22.33;59.56
62057;BME280;48016;50.284;18.860;2023-06-10T10:54:29;98098.42;;;22.46;59.90
62057;BME280;48016;50.284;18.860;2023-06-10T10:57:17;98093.20;;;22.54;59.71
62057;BME280;48016;50.284;18.860;2023-06-10T10:59:56;98088.85;;;22.58;59.47
62057;BME280;48016;50.284;18.860;2023-06-10T11:02:32;98083.20;;;22.52;59.79
62057;BME280;48016;50.284;18.860;2023-06-10T11:05:00;98073.71;;;22.51;60.51
62057;BME280;48016;50.284;18.860;2023-06-10T11:07:26;98071.13;;;22.56;60.07
62057;BME280;48016;50.284;18.860;2023-06-10T11:12:54;98061.89;;;22.73;59.03
62057;BME280;48016;50.284;18.860;2023-06-10T11:23:26;98067.77;;;22.24;57.39
62057;BME280;48016;50.284;18.860;2023-06-10T11:28:34;98061.98;;;22.06;59.09
62057;BME280;48016;50.284;18.860;2023-06-10T11:31:00;98060.75;;;22.19;59.14
62057;BME280;48016;50.284;18.860;2023-06-10T11:33:32;98069.02;;;22.32;59.43
62057;BME280;48016;50.284;18.860;2023-06-10T11:36:24;98071.74;;;22.29;58.58
62057;BME280;48016;50.284;18.860;2023-06-10T11:38:54;98068.43;;;22.22;59.39
62057;BME280;48016;50.284;18.860;2023-06-10T11:41:21;98067.32;;;22.28;59.56
62057;BME280;48016;50.284;18.860;2023-06-10T11:43:47;98065.45;;;22.38;59.72
62057;BME280;48016;50.284;18.860;2023-06-10T11:46:14;98063.41;;;22.51;59.54
62057;BME280;48016;50.284;18.860;2023-06-10T11:48:49;98055.10;;;22.59;59.35
62057;BME280;48016;50.284;18.860;2023-06-10T11:51:15;98063.21;;;22.57;58.18
62057;BME280;48016;50.284;18.860;2023-06-10T11:53:44;98065.98;;;22.52;56.67
62057;BME280;48016;50.284;18.860;2023-06-10T11:56:10;98059.48;;;22.47;55.82
62057;BME280;48016;50.284;18.860;2023-06-10T11:58:36;98051.75;;;22.46;54.60
62057;BME280;48016;50.284;18.860;2023-06-10T12:01:02;98048.21;;;22.38;54.37
62057;BME280;48016;50.284;18.860;2023-06-10T12:03:36;98048.09;;;22.34;55.01
62057;BME280;48016;50.284;18.860;2023-06-10T12:06:06;98049.27;;;22.28;54.94
62057;BME280;48016;50.284;18.860;2023-06-10T12:08:33;98051.50;;;22.26;55.53
62057;BME280;48016;50.284;18.860;2023-06-10T12:10:59;98048.33;;;22.25;56.24
62057;BME280;48016;50.284;18.860;2023-06-10T12:13:27;98049.92;;;22.26;56.52
62057;BME280;48016;50.284;18.860;2023-06-10T12:15:53;98047.45;;;22.34;57.12
62057;BME280;48016;50.284;18.860;2023-06-10T12:18:20;98050.23;;;22.39;56.80
62057;BME280;48016;50.284;18.860;2023-06-10T12:20:47;98049.16;;;22.50;56.79
62057;BME280;48016;50.284;18.860;2023-06-10T12:23:14;98046.45;;;22.68;56.70
62057;BME280;48016;50.284;18.860;2023-06-10T12:25:50;98044.21;;;22.83;55.82
62057;BME280;48016;50.284;18.860;2023-06-10T12:28:17;98041.48;;;22.82;55.35
62057;BME280;48016;50.284;18.860;2023-06-10T12:30:46;98049.02;;;22.65;55.23
62057;BME280;48016;50.284;18.860;2023-06-10T12:33:19;98039.95;;;22.51;55.88
62057;BME280;48016;50.284;18.860;2023-06-10T12:35:49;98048.65;;;22.45;56.13
62057;BME280;48016;50.284;18.860;2023-06-10T12:38:23;98046.34;;;22.40;55.02
62057;BME280;48016;50.284;18.860;2023-06-10T12:40:50;98034.11;;;22.35;55.25
62057;BME280;48016;50.284;18.860;2023-06-10T12:43:20;98041.30;;;22.34;55.90
62057;BME280;48016;50.284;18.860;2023-06-10T12:45:46;98038.52;;;22.33;56.54
62057;BME280;48016;50.284;18.860;2023-06-10T12:50:50;98038.53;;;22.33;56.13
62057;BME280;48016;50.284;18.860;2023-06-10T12:53:16;98037.95;;;22.35;55.92
62057;BME280;48016;50.284;18.860;2023-06-10T12:55:42;98038.02;;;22.43;56.13
62057;BME280;48016;50.284;18.860;2023-06-10T12:58:11;98038.70;;;22.46;55.69
62057;BME280;48016;50.284;18.860;2023-06-10T13:00:37;98041.85;;;22.51;55.56
62057;BME280;48016;50.284;18.860;2023-06-10T13:03:03;98040.00;;;22.59;55.69
62057;BME280;48016;50.284;18.860;2023-06-10T13:05:32;98036.55;;;22.71;55.97
62057;BME280;48016;50.284;18.860;2023-06-10T13:07:58;98037.13;;;22.84;55.60
62057;BME280;48016;50.284;18.860;2023-06-10T13:10:25;98042.31;;;22.90;55.04
62057;BME280;48016;50.284;18.860;2023-06-10T13:12:52;98041.23;;;22.88;54.70
62057;BME280;48016;50.284;18.860;2023-06-10T13:15:20;98038.10;;;22.86;54.69
62057;BME280;48016;50.284;18.860;2023-06-10T13:17:46;98035.79;;;22.84;53.49